sensor_id;sensor_type;location;lat;lon;timestamp;pressure;altitude;pressure_sealevel;temperature;humidity
3697;BME280;60662;48.810;8.872;2024-02-26T08:54:34;94873.66;;;6.30;86.22
3697;BME280;60662;48.810;8.872;2024-02-26T08:58:29;94881.84;;;6.22;87.44
3697;BME280;60662;48.810;8.872;2024-02-26T09:02:55;94882.50;;;6.26;87.04
3697;BME280;60662;48.810;8.872;2024-02-26T09:07:15;94879.56;;;6.32;86.51
3697;BME280;60662;48.810;8.872;2024-02-26T09:10:39;94869.47;;;6.27;86.99
3697;BME280;60662;48.810;8.872;2024-02-26T09:11:41;94874.47;;;6.30;87.25
3697;BME280;60662;48.810;8.872;2024-02-26T09:14:30;94869.53;;;6.42;86.27
3697;BME280;60662;48.810;8.872;2024-02-26T09:15:31;94851.19;;;6.45;85.67
3697;BME280;60662;48.810;8.872;2024-02-26T09:16:33;94855.09;;;6.68;84.63
3697;BME280;60662;48.810;8.872;2024-02-26T09:17:35;94864.50;;;6.69;84.28
3697;BME280;60662;48.810;8.872;2024-02-26T09:18:36;94865.94;;;6.75;83.30
3697;BME280;60662;48.810;8.872;2024-02-26T09:19:38;94860.31;;;6.97;82.23
3697;BME280;60662;48.810;8.872;2024-02-26T09:22:15;94840.09;;;7.02;81.94
3697;BME280;60662;48.810;8.872;2024-02-26T09:40:16;94882.34;;;7.34;82.04
3697;BME280;60662;48.810;8.872;2024-02-26T09:42:45;94874.44;;;7.22;80.75
3697;BME280;60662;48.810;8.872;2024-02-26T09:43:48;94887.78;;;7.30;80.94
3697;BME280;60662;48.810;8.872;2024-02-26T09:44:51;94890.94;;;7.35;80.90
3697;BME280;60662;48.810;8.872;2024-02-26T09:45:55;94884.72;;;7.38;80.60
3697;BME280;60662;48.810;8.872;2024-02-26T09:46:57;94889.84;;;7.54;79.93
3697;BME280;60662;48.810;8.872;2024-02-26T09:48:00;94880.13;;;7.57;79.41
3697;BME280;60662;48.810;8.872;2024-02-26T09:49:04;94892.16;;;7.73;80.41
3697;BME280;60662;48.810;8.872;2024-02-26T09:50:08;94900.13;;;7.84;79.54
3697;BME280;60662;48.810;8.872;2024-02-26T09:51:11;94899.31;;;7.83;78.72
3697;BME280;60662;48.810;8.872;2024-02-26T09:52:14;94891.38;;;8.14;78.48
3697;BME280;60662;48.810;8.872;2024-02-26T09:53:16;94894.34;;;8.08;78.84
3697;BME280;60662;48.810;8.872;2024-02-26T09:54:19;94892.28;;;8.13;78.07
3697;BME280;60662;48.810;8.872;2024-02-26T09:55:21;94895.69;;;8.28;76.59
3697;BME280;60662;48.810;8.872;2024-02-26T09:56:23;94881.19;;;8.24;76.43
3697;BME280;60662;48.810;8.872;2024-02-26T09:57:24;94895.94;;;8.38;76.29
3697;BME280;60662;48.810;8.872;2024-02-26T09:58:28;94906.81;;;8.30;76.00
3697;BME280;60662;48.810;8.872;2024-02-26T09:59:38;94901.78;;;8.41;76.25
3697;BME280;60662;48.810;8.872;2024-02-26T10:00:42;94906.06;;;8.70;75.71
3697;BME280;60662;48.810;8.872;2024-02-26T10:01:44;94892.88;;;8.73;75.36
3697;BME280;60662;48.810;8.872;2024-02-26T10:02:48;94902.81;;;9.19;73.95
3697;BME280;60662;48.810;8.872;2024-02-26T10:03:56;94894.22;;;9.57;73.03
3697;BME280;60662;48.810;8.872;2024-02-26T10:04:59;94894.41;;;9.67;73.62
3697;BME280;60662;48.810;8.872;2024-02-26T10:06:03;94896.19;;;9.67;73.26
3697;BME280;60662;48.810;8.872;2024-02-26T10:07:11;94902.78;;;8.80;73.50
3697;BME280;60662;48.810;8.872;2024-02-26T10:08:14;94898.63;;;8.91;74.90
3697;BME280;60662;48.810;8.872;2024-02-26T10:09:16;94889.66;;;8.95;74.51
3697;BME280;60662;48.810;8.872;2024-02-26T10:10:18;94891.56;;;9.06;74.56
3697;BME280;60662;48.810;8.872;2024-02-26T10:11:20;94897.47;;;8.82;75.03
3697;BME280;60662;48.810;8.872;2024-02-26T10:12:23;94903.16;;;8.74;74.68
3697;BME280;60662;48.810;8.872;2024-02-26T10:13:25;94903.72;;;8.52;74.99
3697;BME280;60662;48.810;8.872;2024-02-26T10:14:26;94906.91;;;7.87;76.97
3697;BME280;60662;48.810;8.872;2024-02-26T10:15:28;94910.91;;;7.78;79.07
3697;BME280;60662;48.810;8.872;2024-02-26T10:16:30;94907.47;;;7.77;78.34
3697;BME280;60662;48.810;8.872;2024-02-26T10:17:31;94901.13;;;7.96;77.48
3697;BME280;60662;48.810;8.872;2024-02-26T10:18:50;94897.91;;;7.92;76.46
3697;BME280;60662;48.810;8.872;2024-02-26T10:20:14;94909.66;;;8.12;76.34
3697;BME280;60662;48.810;8.872;2024-02-26T10:21:17;94908.50;;;8.31;76.37
3697;BME280;60662;48.810;8.872;2024-02-26T10:22:21;94914.72;;;8.28;76.38
3697;BME280;60662;48.810;8.872;2024-02-26T10:23:25;94859.22;;;8.15;75.38
3697;BME280;60662;48.810;8.872;2024-02-26T10:24:28;94906.50;;;8.49;74.59
3697;BME280;60662;48.810;8.872;2024-02-26T10:25:30;94909.38;;;8.59;75.28
3697;BME280;60662;48.810;8.872;2024-02-26T10:26:35;94907.81;;;8.56;75.88
3697;BME280;60662;48.810;8.872;2024-02-26T10:27:37;94913.81;;;8.84;74.87
3697;BME280;60662;48.810;8.872;2024-02-26T10:28:41;94899.13;;;8.83;74.36
3697;BME280;60662;48.810;8.872;2024-02-26T10:29:43;94894.75;;;8.83;73.60
3697;BME280;60662;48.810;8.872;2024-02-26T10:30:44;94910.69;;;8.79;74.03
3697;BME280;60662;48.810;8.872;2024-02-26T10:31:47;94912.44;;;8.78;74.56
3697;BME280;60662;48.810;8.872;2024-02-26T10:32:49;94907.28;;;8.91;74.40
3697;BME280;60662;48.810;8.872;2024-02-26T10:33:55;94889.09;;;9.04;73.72
3697;BME280;60662;48.810;8.872;2024-02-26T10:34:57;94916.59;;;9.34;73.42
3697;BME280;60662;48.810;8.872;2024-02-26T10:35:58;94904.44;;;9.35;72.50
3697;BME280;60662;48.810;8.872;2024-02-26T10:37:01;94916.72;;;9.32;72.21
3697;BME280;60662;48.810;8.872;2024-02-26T10:38:04;94916.59;;;9.47;71.96
3697;BME280;60662;48.810;8.872;2024-02-26T10:39:05;94916.19;;;9.53;72.10
3697;BME280;60662;48.810;8.872;2024-02-26T10:40:11;94924.09;;;9.64;71.39
3697;BME280;60662;48.810;8.872;2024-02-26T10:41:14;94895.84;;;9.58;71.59
3697;BME280;60662;48.810;8.872;2024-02-26T10:42:16;94922.44;;;9.89;71.15
3697;BME280;60662;48.810;8.872;2024-02-26T10:43:20;94914.09;;;9.84;70.62
3697;BME280;60662;48.810;8.872;2024-02-26T10:44:22;94913.13;;;10.11;70.17
3697;BME280;60662;48.810;8.872;2024-02-26T10:45:23;94921.47;;;10.03;69.90
3697;BME280;60662;48.810;8.872;2024-02-26T10:46:26;94907.97;;;10.84;68.30
3697;BME280;60662;48.810;8.872;2024-02-26T10:47:28;94921.47;;;11.71;65.89
3697;BME280;60662;48.810;8.872;2024-02-26T10:48:30;94924.78;;;12.41;64.20
3697;BME280;60662;48.810;8.872;2024-02-26T10:49:34;94909.28;;;12.94;62.35
3697;BME280;60662;48.810;8.872;2024-02-26T10:50:35;94924.53;;;13.53;61.12
3697;BME280;60662;48.810;8.872;2024-02-26T10:51:37;94928.06;;;13.95;59.13
3697;BME280;60662;48.810;8.872;2024-02-26T10:52:40;94912.84;;;13.25;59.91
3697;BME280;60662;48.810;8.872;2024-02-26T10:53:45;94923.91;;;13.61;60.20
3697;BME280;60662;48.810;8.872;2024-02-26T10:54:47;94924.97;;;13.59;59.93
3697;BME280;60662;48.810;8.872;2024-02-26T10:55:55;94926.31;;;13.53;59.28
3697;BME280;60662;48.810;8.872;2024-02-26T10:56:59;94929.47;;;13.35;59.99
3697;BME280;60662;48.810;8.872;2024-02-26T10:58:01;94939.69;;;13.17;60.06
3697;BME280;60662;48.810;8.872;2024-02-26T10:59:05;94939.19;;;12.91;60.64
3697;BME280;60662;48.810;8.872;2024-02-26T11:00:15;94944.22;;;13.15;59.58
3697;BME280;60662;48.810;8.872;2024-02-26T11:01:18;94927.34;;;13.29;59.51
3697;BME280;60662;48.810;8.872;2024-02-26T11:02:20;94943.94;;;12.97;60.81
3697;BME280;60662;48.810;8.872;2024-02-26T11:03:22;94942.41;;;12.95;61.13
3697;BME280;60662;48.810;8.872;2024-02-26T11:04:26;94936.63;;;13.45;60.78
3697;BME280;60662;48.810;8.872;2024-02-26T11:05:30;94932.84;;;13.59;59.39
3697;BME280;60662;48.810;8.872;2024-02-26T11:06:32;94925.16;;;13.67;59.18
3697;BME280;60662;48.810;8.872;2024-02-26T11:07:36;94933.44;;;14.65;58.55
3697;BME280;60662;48.810;8.872;2024-02-26T11:08:38;94928.75;;;15.27;56.36
3697;BME280;60662;48.810;8.872;2024-02-26T11:09:40;94927.13;;;16.03;53.42
3697;BME280;60662;48.810;8.872;2024-02-26T11:10:52;55703.94;;;-145.49;100.00
3697;BME280;60662;48.810;8.872;2024-02-26T11:11:54;55703.94;;;-145.49;100.00
3697;BME280;60662;48.810;8.872;2024-02-26T11:12:59;55703.94;;;-145.49;100.00
3697;BME280;60662;48.810;8.872;2024-02-26T11:14:01;55703.94;;;-145.49;100.00
3697;BME280;60662;48.810;8.872;2024-02-26T11:15:04;55703.94;;;-145.49;100.00
3697;BME280;60662;48.810;8.872;2024-02-26T11:16:07;55703.94;;;-145.49;100.00
3697;BME280;60662;48.810;8.872;2024-02-26T11:17:09;55703.94;;;-145.49;100.00
3697;BME280;60662;48.810;8.872;2024-02-26T11:18:13;55703.94;;;-145.49;100.00
3697;BME280;60662;48.810;8.872;2024-02-26T11:19:16;55703.94;;;-145.49;100.00
3697;BME280;60662;48.810;8.872;2024-02-26T11:20:19;55703.94;;;-145.49;100.00
3697;BME280;60662;48.810;8.872;2024-02-26T11:21:21;55703.94;;;-145.49;100.00
3697;BME280;60662;48.810;8.872;2024-02-26T11:22:32;55703.94;;;-145.49;100.00
3697;BME280;60662;48.810;8.872;2024-02-26T11:23:34;55703.94;;;-145.49;100.00
3697;BME280;60662;48.810;8.872;2024-02-26T11:24:41;55703.94;;;-145.49;100.00
3697;BME280;60662;48.810;8.872;2024-02-26T11:25:44;55703.94;;;-145.49;100.00
3697;BME280;60662;48.810;8.872;2024-02-26T11:26:51;55703.94;;;-145.49;100.00
3697;BME280;60662;48.810;8.872;2024-02-26T11:28:04;55703.94;;;-145.49;100.00
3697;BME280;60662;48.810;8.872;2024-02-26T11:29:08;55703.94;;;-145.49;100.00
3697;BME280;60662;48.810;8.872;2024-02-26T11:30:13;55703.94;;;-145.49;100.00
3697;BME280;60662;48.810;8.872;2024-02-26T11:31:15;55703.94;;;-145.49;100.00
3697;BME280;60662;48.810;8.872;2024-02-26T11:32:16;55703.94;;;-145.49;100.00
3697;BME280;60662;48.810;8.872;2024-02-26T11:33:19;55703.94;;;-145.49;100.00
3697;BME280;60662;48.810;8.872;2024-02-26T11:34:21;55703.94;;;-145.49;100.00
3697;BME280;60662;48.810;8.872;2024-02-26T11:35:23;55703.94;;;-145.49;100.00
3697;BME280;60662;48.810;8.872;2024-02-26T11:36:25;55703.94;;;-145.49;100.00
3697;BME280;60662;48.810;8.872;2024-02-26T11:37:27;55703.94;;;-145.49;100.00
3697;BME280;60662;48.810;8.872;2024-02-26T11:38:29;55703.94;;;-145.49;100.00
3697;BME280;60662;48.810;8.872;2024-02-26T11:39:31;55703.94;;;-145.49;100.00
3697;BME280;60662;48.810;8.872;2024-02-26T11:40:39;55703.94;;;-145.49;100.00
3697;BME280;60662;48.810;8.872;2024-02-26T11:41:43;55703.94;;;-145.49;100.00
3697;BME280;60662;48.810;8.872;2024-02-26T11:42:45;55703.94;;;-145.49;100.00
3697;BME280;60662;48.810;8.872;2024-02-26T11:44:53;55703.94;;;-145.49;100.00
3697;BME280;60662;48.810;8.872;2024-02-26T11:45:55;55703.94;;;-145.49;100.00
3697;BME280;60662;48.810;8.872;2024-02-26T11:47:13;55703.94;;;-145.49;100.00
3697;BME280;60662;48.810;8.872;2024-02-26T11:48:22;55703.94;;;-145.49;100.00
3697;BME280;60662;48.810;8.872;2024-02-26T11:49:30;55703.94;;;-145.49;100.00
3697;BME280;60662;48.810;8.872;2024-02-26T11:50:36;55703.94;;;-145.49;100.00
3697;BME280;60662;48.810;8.872;2024-02-26T11:51:38;55703.94;;;-145.49;100.00
3697;BME280;60662;48.810;8.872;2024-02-26T11:55:44;94928.88;;;14.67;55.67
3697;BME280;60662;48.810;8.872;2024-02-26T11:56:45;94932.28;;;14.17;56.04
3697;BME280;60662;48.810;8.872;2024-02-26T11:57:47;94935.84;;;15.07;55.20
3697;BME280;60662;48.810;8.872;2024-02-26T11:58:56;94942.63;;;15.29;55.12
3697;BME280;60662;48.810;8.872;2024-02-26T12:01:37;94936.38;;;15.30;54.50
3697;BME280;60662;48.810;8.872;2024-02-26T12:02:51;94940.03;;;15.77;53.66
3697;BME280;60662;48.810;8.872;2024-02-26T12:04:01;94939.28;;;15.57;52.74
3697;BME280;60662;48.810;8.872;2024-02-26T12:05:02;94938.28;;;15.67;52.44
3697;BME280;60662;48.810;8.872;2024-02-26T12:06:06;94939.69;;;15.62;52.66
3697;BME280;60662;48.810;8.872;2024-02-26T12:07:12;94941.09;;;15.07;53.98
3697;BME280;60662;48.810;8.872;2024-02-26T12:08:14;94940.69;;;15.22;54.60
3697;BME280;60662;48.810;8.872;2024-02-26T12:09:56;94937.50;;;14.98;55.43
3697;BME280;60662;48.810;8.872;2024-02-26T12:11:14;94944.41;;;15.19;54.01
3697;BME280;60662;48.810;8.872;2024-02-26T12:12:18;94941.34;;;14.75;54.75
3697;BME280;60662;48.810;8.872;2024-02-26T12:13:29;94943.63;;;14.58;55.30
3697;BME280;60662;48.810;8.872;2024-02-26T12:14:39;94944.19;;;13.90;56.72
3697;BME280;60662;48.810;8.872;2024-02-26T12:16:56;94942.69;;;13.45;57.53
3697;BME280;60662;48.810;8.872;2024-02-26T12:17:58;94942.41;;;13.48;58.35
3697;BME280;60662;48.810;8.872;2024-02-26T12:19:04;94949.91;;;13.53;57.32
3697;BME280;60662;48.810;8.872;2024-02-26T12:20:10;94949.72;;;13.45;57.95
3697;BME280;60662;48.810;8.872;2024-02-26T12:21:12;94946.53;;;13.41;58.14
3697;BME280;60662;48.810;8.872;2024-02-26T12:22:14;94955.50;;;13.27;57.93
3697;BME280;60662;48.810;8.872;2024-02-26T12:23:16;94954.13;;;12.79;59.22
3697;BME280;60662;48.810;8.872;2024-02-26T12:24:19;94955.84;;;12.57;59.87
3697;BME280;60662;48.810;8.872;2024-02-26T12:25:25;94947.66;;;12.39;59.96
3697;BME280;60662;48.810;8.872;2024-02-26T12:26:27;94953.13;;;12.25;60.95
3697;BME280;60662;48.810;8.872;2024-02-26T12:27:29;94961.97;;;12.24;61.01
3697;BME280;60662;48.810;8.872;2024-02-26T12:28:31;94954.81;;;12.26;60.18
3697;BME280;60662;48.810;8.872;2024-02-26T12:29:32;94927.81;;;12.03;60.19
3697;BME280;60662;48.810;8.872;2024-02-26T12:30:34;94949.19;;;11.85;61.00
3697;BME280;60662;48.810;8.872;2024-02-26T12:31:37;94952.47;;;11.53;62.04
3697;BME280;60662;48.810;8.872;2024-02-26T12:32:39;94928.00;;;11.07;62.92
3697;BME280;60662;48.810;8.872;2024-02-26T12:33:41;94956.66;;;11.20;63.34
3697;BME280;60662;48.810;8.872;2024-02-26T12:34:43;94949.91;;;11.29;62.71
3697;BME280;60662;48.810;8.872;2024-02-26T12:35:45;94959.31;;;11.32;63.09
3697;BME280;60662;48.810;8.872;2024-02-26T12:36:49;94954.25;;;11.41;63.08
3697;BME280;60662;48.810;8.872;2024-02-26T12:37:52;94956.06;;;11.64;62.74
3697;BME280;60662;48.810;8.872;2024-02-26T12:38:54;94956.03;;;11.52;62.18
3697;BME280;60662;48.810;8.872;2024-02-26T12:39:57;94940.69;;;11.12;62.49
3697;BME280;60662;48.810;8.872;2024-02-26T12:40:58;94951.09;;;11.36;62.84
3697;BME280;60662;48.810;8.872;2024-02-26T12:42:00;94958.44;;;11.31;62.74
3697;BME280;60662;48.810;8.872;2024-02-26T12:43:02;94961.00;;;11.44;63.30
3697;BME280;60662;48.810;8.872;2024-02-26T12:44:04;94966.34;;;11.54;62.88
3697;BME280;60662;48.810;8.872;2024-02-26T12:45:10;94962.53;;;11.35;62.55
3697;BME280;60662;48.810;8.872;2024-02-26T12:46:13;94959.47;;;11.41;63.54
3697;BME280;60662;48.810;8.872;2024-02-26T12:47:16;94954.03;;;11.56;63.58
3697;BME280;60662;48.810;8.872;2024-02-26T12:48:19;94958.53;;;11.65;62.82
3697;BME280;60662;48.810;8.872;2024-02-26T12:49:22;94958.69;;;11.75;62.77
3697;BME280;60662;48.810;8.872;2024-02-26T12:50:24;94962.03;;;11.88;63.21
3697;BME280;60662;48.810;8.872;2024-02-26T12:51:26;94963.25;;;12.07;63.48
3697;BME280;60662;48.810;8.872;2024-02-26T12:52:28;94955.66;;;12.04;62.65
3697;BME280;60662;48.810;8.872;2024-02-26T12:53:30;94960.88;;;12.15;62.60
3697;BME280;60662;48.810;8.872;2024-02-26T12:54:33;94958.22;;;11.92;64.00
3697;BME280;60662;48.810;8.872;2024-02-26T12:55:35;94960.50;;;11.97;63.71
3697;BME280;60662;48.810;8.872;2024-02-26T12:56:41;94960.00;;;11.92;63.56
3697;BME280;60662;48.810;8.872;2024-02-26T12:57:44;94960.41;;;12.10;63.06
3697;BME280;60662;48.810;8.872;2024-02-26T12:58:46;94957.34;;;11.58;63.55
3697;BME280;60662;48.810;8.872;2024-02-26T12:59:48;94967.63;;;11.84;64.53
3697;BME280;60662;48.810;8.872;2024-02-26T13:00:51;94963.25;;;12.30;64.11
3697;BME280;60662;48.810;8.872;2024-02-26T13:01:53;94971.09;;;12.18;62.78
3697;BME280;60662;48.810;8.872;2024-02-26T13:02:56;94959.50;;;11.75;62.76
3697;BME280;60662;48.810;8.872;2024-02-26T13:03:58;94973.50;;;12.10;62.80
3697;BME280;60662;48.810;8.872;2024-02-26T13:05:05;94968.47;;;11.96;63.84
3697;BME280;60662;48.810;8.872;2024-02-26T13:06:07;94968.97;;;12.12;62.89
3697;BME280;60662;48.810;8.872;2024-02-26T13:07:10;94945.88;;;12.29;62.75
3697;BME280;60662;48.810;8.872;2024-02-26T13:08:19;94963.19;;;13.07;61.25
3697;BME280;60662;48.810;8.872;2024-02-26T13:09:20;94959.38;;;12.68;61.48
3697;BME280;60662;48.810;8.872;2024-02-26T13:10:24;94959.19;;;12.92;60.82
3697;BME280;60662;48.810;8.872;2024-02-26T13:11:27;94966.97;;;13.90;60.09
3697;BME280;60662;48.810;8.872;2024-02-26T13:12:30;94954.25;;;13.43;59.06
3697;BME280;60662;48.810;8.872;2024-02-26T13:13:32;94969.41;;;14.84;57.44
3697;BME280;60662;48.810;8.872;2024-02-26T13:14:33;94961.53;;;15.92;55.72
3697;BME280;60662;48.810;8.872;2024-02-26T13:15:35;94965.44;;;15.68;53.85
3697;BME280;60662;48.810;8.872;2024-02-26T13:16:37;94966.41;;;15.18;55.40
3697;BME280;60662;48.810;8.872;2024-02-26T13:17:38;94965.13;;;14.83;54.20
3697;BME280;60662;48.810;8.872;2024-02-26T13:18:40;94961.41;;;14.95;55.26
3697;BME280;60662;48.810;8.872;2024-02-26T13:19:49;94967.94;;;15.30;55.09
3697;BME280;60662;48.810;8.872;2024-02-26T13:20:52;94963.59;;;15.88;53.50
3697;BME280;60662;48.810;8.872;2024-02-26T13:21:54;94964.59;;;16.25;53.30
3697;BME280;60662;48.810;8.872;2024-02-26T13:23:02;94967.47;;;16.04;53.11
3697;BME280;60662;48.810;8.872;2024-02-26T13:24:06;94963.88;;;16.32;52.56
3697;BME280;60662;48.810;8.872;2024-02-26T13:25:07;94968.56;;;16.67;51.34
3697;BME280;60662;48.810;8.872;2024-02-26T13:26:12;94970.25;;;16.30;51.93
3697;BME280;60662;48.810;8.872;2024-02-26T13:27:21;94980.75;;;16.02;51.62
3697;BME280;60662;48.810;8.872;2024-02-26T13:28:22;94977.22;;;15.54;51.82
3697;BME280;60662;48.810;8.872;2024-02-26T13:29:25;94982.06;;;15.39;52.26
3697;BME280;60662;48.810;8.872;2024-02-26T13:30:27;94973.41;;;16.43;50.89
3697;BME280;60662;48.810;8.872;2024-02-26T13:31:29;94979.16;;;17.49;49.33
3697;BME280;60662;48.810;8.872;2024-02-26T13:32:35;55703.94;;;-145.49;100.00
3697;BME280;60662;48.810;8.872;2024-02-26T13:33:37;55703.94;;;-145.49;100.00
3697;BME280;60662;48.810;8.872;2024-02-26T13:34:39;55703.94;;;-145.49;100.00
3697;BME280;60662;48.810;8.872;2024-02-26T13:35:41;94975.53;;;16.95;49.05
3697;BME280;60662;48.810;8.872;2024-02-26T13:36:42;94983.22;;;17.07;48.33
3697;BME280;60662;48.810;8.872;2024-02-26T13:37:44;94962.78;;;15.88;49.58
3697;BME280;60662;48.810;8.872;2024-02-26T13:38:55;94977.44;;;14.82;52.13
3697;BME280;60662;48.810;8.872;2024-02-26T13:39:57;94984.16;;;15.45;51.79
3697;BME280;60662;48.810;8.872;2024-02-26T13:40:58;94970.84;;;15.17;51.75
3697;BME280;60662;48.810;8.872;2024-02-26T13:42:00;94981.63;;;15.63;52.20
3697;BME280;60662;48.810;8.872;2024-02-26T13:43:01;94985.09;;;15.05;52.35
3697;BME280;60662;48.810;8.872;2024-02-26T13:44:03;94983.75;;;13.98;53.35
3697;BME280;60662;48.810;8.872;2024-02-26T13:45:05;94985.84;;;13.62;54.71
3697;BME280;60662;48.810;8.872;2024-02-26T13:46:10;94980.63;;;13.41;55.67
3697;BME280;60662;48.810;8.872;2024-02-26T13:47:16;94987.91;;;14.01;53.67
3697;BME280;60662;48.810;8.872;2024-02-26T13:48:19;94984.38;;;13.69;54.43
3697;BME280;60662;48.810;8.872;2024-02-26T13:49:21;94996.97;;;13.22;55.50
3697;BME280;60662;48.810;8.872;2024-02-26T13:50:23;94994.84;;;13.16;56.28
3697;BME280;60662;48.810;8.872;2024-02-26T13:51:25;94996.84;;;13.77;55.17
3697;BME280;60662;48.810;8.872;2024-02-26T13:52:27;94985.22;;;13.91;54.64
3697;BME280;60662;48.810;8.872;2024-02-26T13:53:28;94991.59;;;14.29;52.72
3697;BME280;60662;48.810;8.872;2024-02-26T13:54:33;94991.13;;;14.45;53.18
3697;BME280;60662;48.810;8.872;2024-02-26T13:55:35;94995.28;;;14.17;53.07
3697;BME280;60662;48.810;8.872;2024-02-26T13:56:37;94990.84;;;14.39;53.22
3697;BME280;60662;48.810;8.872;2024-02-26T13:57:39;94984.97;;;13.73;53.92
3697;BME280;60662;48.810;8.872;2024-02-26T13:58:41;94985.41;;;13.57;54.72
3697;BME280;60662;48.810;8.872;2024-02-26T13:59:43;94979.75;;;14.04;54.11
3697;BME280;60662;48.810;8.872;2024-02-26T14:00:45;94987.56;;;14.87;53.71
3697;BME280;60662;48.810;8.872;2024-02-26T14:01:46;94966.66;;;14.76;52.79
3697;BME280;60662;48.810;8.872;2024-02-26T14:02:48;94988.00;;;15.22;52.24
3697;BME280;60662;48.810;8.872;2024-02-26T14:03:50;94985.34;;;16.00;51.27
3697;BME280;60662;48.810;8.872;2024-02-26T14:04:52;94985.19;;;16.11;50.64
3697;BME280;60662;48.810;8.872;2024-02-26T14:05:53;94978.38;;;16.46;50.02
3697;BME280;60662;48.810;8.872;2024-02-26T14:06:55;94990.94;;;16.90;49.30
3697;BME280;60662;48.810;8.872;2024-02-26T14:07:57;94995.63;;;16.31;48.33
3697;BME280;60662;48.810;8.872;2024-02-26T14:08:59;94985.75;;;15.95;49.94
3697;BME280;60662;48.810;8.872;2024-02-26T14:10:00;94987.25;;;16.18;49.76
3697;BME280;60662;48.810;8.872;2024-02-26T14:11:02;94986.47;;;15.97;49.93
3697;BME280;60662;48.810;8.872;2024-02-26T14:12:04;94990.03;;;14.89;51.07
3697;BME280;60662;48.810;8.872;2024-02-26T14:13:06;94985.09;;;15.25;51.47
3697;BME280;60662;48.810;8.872;2024-02-26T14:14:07;94993.13;;;15.82;49.55
3697;BME280;60662;48.810;8.872;2024-02-26T14:15:10;94986.00;;;16.49;48.83
3697;BME280;60662;48.810;8.872;2024-02-26T14:16:12;94987.59;;;17.34;47.95
3697;BME280;60662;48.810;8.872;2024-02-26T14:17:15;94989.38;;;16.70;48.33
3697;BME280;60662;48.810;8.872;2024-02-26T14:18:16;94987.97;;;17.03;48.05
3697;BME280;60662;48.810;8.872;2024-02-26T14:19:18;94990.75;;;15.69;49.25
3697;BME280;60662;48.810;8.872;2024-02-26T14:20:20;94996.84;;;15.99;48.75
3697;BME280;60662;48.810;8.872;2024-02-26T14:21:22;94986.00;;;16.49;48.49
3697;BME280;60662;48.810;8.872;2024-02-26T14:22:25;94989.09;;;15.88;48.12
3697;BME280;60662;48.810;8.872;2024-02-26T14:23:28;94991.88;;;15.37;50.36
3697;BME280;60662;48.810;8.872;2024-02-26T14:24:29;94986.72;;;15.94;49.01
3697;BME280;60662;48.810;8.872;2024-02-26T14:25:31;94988.56;;;15.35;49.16
3697;BME280;60662;48.810;8.872;2024-02-26T14:26:32;94982.47;;;16.31;50.70
3697;BME280;60662;48.810;8.872;2024-02-26T14:27:34;94975.81;;;15.70;49.62
3697;BME280;60662;48.810;8.872;2024-02-26T14:28:36;94983.00;;;16.72;50.06
3697;BME280;60662;48.810;8.872;2024-02-26T14:29:37;94993.84;;;17.15;47.71
3697;BME280;60662;48.810;8.872;2024-02-26T14:30:41;94981.53;;;17.78;47.70
3697;BME280;60662;48.810;8.872;2024-02-26T14:31:42;94981.81;;;17.49;47.49
3697;BME280;60662;48.810;8.872;2024-02-26T14:32:47;94973.88;;;17.67;47.42
3697;BME280;60662;48.810;8.872;2024-02-26T14:33:49;94979.94;;;16.95;47.62
3697;BME280;60662;48.810;8.872;2024-02-26T14:34:56;94986.91;;;17.68;47.36
3697;BME280;60662;48.810;8.872;2024-02-26T14:35:58;94977.75;;;17.99;46.83
3697;BME280;60662;48.810;8.872;2024-02-26T14:36:59;94984.88;;;17.44;47.04
3697;BME280;60662;48.810;8.872;2024-02-26T14:38:01;94986.09;;;16.86;48.03
3697;BME280;60662;48.810;8.872;2024-02-26T14:39:03;94986.31;;;15.99;49.49
3697;BME280;60662;48.810;8.872;2024-02-26T14:40:04;94985.03;;;16.13;49.81
3697;BME280;60662;48.810;8.872;2024-02-26T14:41:06;94962.75;;;16.35;49.98
3697;BME280;60662;48.810;8.872;2024-02-26T14:42:08;94990.00;;;16.81;49.68
3697;BME280;60662;48.810;8.872;2024-02-26T14:43:10;94983.06;;;17.26;49.00
3697;BME280;60662;48.810;8.872;2024-02-26T14:44:11;94988.06;;;17.48;48.22
3697;BME280;60662;48.810;8.872;2024-02-26T14:45:14;94981.94;;;17.47;47.53
3697;BME280;60662;48.810;8.872;2024-02-26T14:46:15;94978.34;;;17.30;47.20
3697;BME280;60662;48.810;8.872;2024-02-26T14:47:17;94981.16;;;16.73;47.95
3697;BME280;60662;48.810;8.872;2024-02-26T14:48:18;94993.00;;;15.83;50.18
3697;BME280;60662;48.810;8.872;2024-02-26T14:49:20;94985.78;;;15.56;49.29
3697;BME280;60662;48.810;8.872;2024-02-26T14:50:21;94991.03;;;15.66;50.72
3697;BME280;60662;48.810;8.872;2024-02-26T14:51:23;94996.88;;;15.40;50.58
3697;BME280;60662;48.810;8.872;2024-02-26T14:52:25;94995.75;;;15.04;51.80
3697;BME280;60662;48.810;8.872;2024-02-26T14:53:26;95001.56;;;15.66;51.25
3697;BME280;60662;48.810;8.872;2024-02-26T14:54:28;94984.00;;;15.86;50.90
3697;BME280;60662;48.810;8.872;2024-02-26T14:55:34;95009.84;;;16.00;50.35
3697;BME280;60662;48.810;8.872;2024-02-26T14:56:35;95010.72;;;15.91;51.04
3697;BME280;60662;48.810;8.872;2024-02-26T14:57:38;95012.09;;;15.66;51.12
3697;BME280;60662;48.810;8.872;2024-02-26T14:58:40;95018.31;;;15.65;51.11
3697;BME280;60662;48.810;8.872;2024-02-26T14:59:42;95010.56;;;15.63;51.17
3697;BME280;60662;48.810;8.872;2024-02-26T15:00:45;95014.16;;;15.52;51.44
3697;BME280;60662;48.810;8.872;2024-02-26T15:01:46;95006.63;;;14.79;52.72
3697;BME280;60662;48.810;8.872;2024-02-26T15:02:48;94996.84;;;15.01;52.88
3697;BME280;60662;48.810;8.872;2024-02-26T15:03:50;95005.97;;;15.07;52.96
3697;BME280;60662;48.810;8.872;2024-02-26T15:04:52;95008.41;;;14.79;53.05
3697;BME280;60662;48.810;8.872;2024-02-26T15:05:53;94994.69;;;14.03;53.21
3697;BME280;60662;48.810;8.872;2024-02-26T15:06:55;95007.22;;;14.00;54.30
3697;BME280;60662;48.810;8.872;2024-02-26T15:07:56;95015.03;;;13.90;54.82
3697;BME280;60662;48.810;8.872;2024-02-26T15:08:58;95013.94;;;14.14;54.87
3697;BME280;60662;48.810;8.872;2024-02-26T15:10:00;94997.56;;;13.79;54.98
3697;BME280;60662;48.810;8.872;2024-02-26T15:11:02;95017.47;;;14.03;54.88
3697;BME280;60662;48.810;8.872;2024-02-26T15:12:04;95013.63;;;14.07;55.00
3697;BME280;60662;48.810;8.872;2024-02-26T15:13:09;95018.09;;;13.95;54.87
3697;BME280;60662;48.810;8.872;2024-02-26T15:14:10;95006.22;;;13.70;55.78